Tropical Cyclones
[Index]
Main Index Home Page Stock Weather Photos Extreme Storms Discussion Storm News and Storm Chasing Reports Tropical Cyclones / Hurricanes / Typhoons Weather Data and Links Wild Fires / Bushfires Weather Observation Techniques Weather Picture Catalogue Tornado Pictures and Reports Stock Video Footage and DVDs for sale
Season 1981-1982 Tropical Cyclone CLAUDIA Track Map
Season 1981-1982 Summaries: [BoM-AU] [JTWC-AU] [JTWC-SIO] [JTWC-SPAC] [JTWC-SH]
<<- Previous TC | JTWC 1981-1982 Season | Next TC ->>

click for intensity scale information  Lat/long Grid: Show Hide

 Date Labels: Show Hide

Joint Typhoon Warning Centre Cyclone Data

Name: CLAUDIA

11 May 1982 06:00 UTC to 18 May 1982 06:00 UTC

    date/time    lat    long     hPa   cat  kts
1982-05-11 06    9.0   157.1                  15          
1982-05-11 12    8.5   157.1                  15          
1982-05-11 18    8.4   157.0                  15          
1982-05-12 00    8.5   156.7                  15          
1982-05-12 06    8.8   156.4                  20          
1982-05-12 12    9.2   156.3                  20          
1982-05-12 18    9.6   156.3                  20          
1982-05-13 00   10.1   156.3                  20          
1982-05-13 06   10.6   156.4                  25          
1982-05-13 12   11.0   156.5                  25          
1982-05-13 18   11.4   156.6                  25          
1982-05-14 00   11.8   156.7                  25          
1982-05-14 06   12.3   156.8                  30          
1982-05-14 12   12.7   156.9                  30          
1982-05-14 18   13.2   157.0                  30          
1982-05-15 00   13.6   157.3                  30          
1982-05-15 06   14.1   157.8                  35          
1982-05-15 12   14.4   158.4                  35          
1982-05-15 18   14.4   159.0            1     40          
1982-05-16 00   14.1   159.6            1     40          
1982-05-16 06   13.8   160.2            1     40          
1982-05-16 12   13.5   161.0            1     40          
1982-05-16 18   13.2   161.7                  35          
1982-05-17 00   12.6   161.9                  35          
1982-05-17 06   11.9   161.5                  30          
1982-05-17 12   11.6   160.9                  30          
1982-05-17 18   11.4   160.3                  25          
1982-05-18 00   11.2   159.7                  25          
1982-05-18 06   11.0   159.2                  20          
Winds are 1-min average.

Tropical cyclone tracks developed by Michael Bath using data from the Joint Typhoon Warning Centre Best Tracks and Google Maps.


[Australian Severe Weather index] [Copyright Notice] [Email Contacts] [Search This Site] [Privacy Policy]
Document: tropical_cyclone_claudia.htm Updated: 18 September 2016